createdAt,value
2018-03-22T00:00:21.540Z,0.20
2018-03-22T00:01:21.521Z,0.07
2018-03-22T00:02:21.509Z,0.01
2018-03-22T00:03:21.482Z,0.04
2018-03-22T00:04:21.460Z,0.04
2018-03-22T00:05:21.442Z,-0.06
2018-03-22T00:06:21.422Z,0.05
2018-03-22T00:07:21.401Z,0.13
2018-03-22T00:08:21.382Z,0.05
2018-03-22T00:09:21.365Z,0.01
2018-03-22T00:10:21.341Z,-0.03
2018-03-22T00:11:21.319Z,-0.02
2018-03-22T00:12:21.301Z,-0.12
2018-03-22T00:13:21.281Z,0.01
2018-03-22T00:14:21.260Z,-0.16
2018-03-22T00:15:21.240Z,-0.19
2018-03-22T00:16:21.220Z,-0.24
2018-03-22T00:17:21.201Z,-0.24
2018-03-22T00:18:21.198Z,-0.24
2018-03-22T00:19:21.158Z,-0.26
2018-03-22T00:20:21.137Z,-0.38
2018-03-22T00:21:21.124Z,-0.35
2018-03-22T00:22:21.099Z,-0.35
2018-03-22T00:23:21.076Z,-0.34
2018-03-22T00:24:21.058Z,-0.27
2018-03-22T00:25:21.041Z,-0.16
2018-03-22T00:26:21.022Z,-0.03
2018-03-22T00:27:20.998Z,0.16
2018-03-22T00:28:20.983Z,0.23
2018-03-22T00:29:20.961Z,0.15
2018-03-22T00:30:20.942Z,0.05
2018-03-22T00:31:20.915Z,-0.09
2018-03-22T00:32:20.894Z,-0.03
2018-03-22T00:33:20.873Z,-0.08
2018-03-22T00:34:20.852Z,0.08
2018-03-22T00:35:20.831Z,0.15
2018-03-22T00:36:20.809Z,0.16
2018-03-22T00:37:20.791Z,0.37
2018-03-22T00:38:20.769Z,0.23
2018-03-22T00:39:20.751Z,0.20
2018-03-22T00:40:20.727Z,0.17
2018-03-22T00:41:20.708Z,0.13
2018-03-22T00:42:20.694Z,0.12
2018-03-22T00:43:20.676Z,0.10
2018-03-22T00:44:20.646Z,0.04
2018-03-22T00:45:20.635Z,-0.09
2018-03-22T00:46:20.610Z,-0.13
2018-03-22T00:47:20.595Z,-0.17
2018-03-22T00:48:20.566Z,-0.24
2018-03-22T00:49:20.551Z,-0.24
2018-03-22T00:50:20.526Z,-0.37
2018-03-22T00:51:20.505Z,-0.50
2018-03-22T00:52:20.482Z,-0.44
2018-03-22T00:53:20.464Z,-0.45
2018-03-22T00:54:20.445Z,-0.45
2018-03-22T00:55:20.429Z,-0.44
2018-03-22T00:56:20.402Z,-0.47
2018-03-22T00:57:20.384Z,-0.55
2018-03-22T00:58:20.364Z,-0.68
2018-03-22T00:59:20.341Z,-0.58
2018-03-22T01:00:20.320Z,-0.70
2018-03-22T01:01:20.304Z,-0.74
2018-03-22T01:02:20.279Z,-0.81
2018-03-22T01:03:20.262Z,-0.67
2018-03-22T01:04:20.239Z,-0.62
2018-03-22T01:05:20.219Z,-0.76
2018-03-22T01:06:20.197Z,-0.68
2018-03-22T01:07:20.181Z,-0.70
2018-03-22T01:08:20.156Z,-0.60
2018-03-22T01:09:20.136Z,-0.73
2018-03-22T01:10:20.116Z,-0.74
2018-03-22T01:11:20.100Z,-0.81
2018-03-22T01:12:20.074Z,-0.81
2018-03-22T01:13:20.059Z,-0.83
2018-03-22T01:14:20.042Z,-0.92
2018-03-22T01:15:20.019Z,-0.89
2018-03-22T01:16:20.000Z,-0.90
2018-03-22T01:17:19.974Z,-0.90
2018-03-22T01:18:19.957Z,-0.77
2018-03-22T01:19:19.931Z,-0.67
2018-03-22T01:20:19.911Z,-0.63
2018-03-22T01:21:19.889Z,-0.60
2018-03-22T01:22:19.868Z,-0.67
2018-03-22T01:23:19.850Z,-0.55
2018-03-22T01:24:19.828Z,-0.58
2018-03-22T01:25:19.807Z,-0.77
2018-03-22T01:26:19.788Z,-0.77
2018-03-22T01:27:19.769Z,-0.76
2018-03-22T01:28:19.746Z,-0.89
2018-03-22T01:29:19.725Z,-0.81
2018-03-22T01:30:19.704Z,-0.92
2018-03-22T01:31:19.684Z,-0.60
2018-03-22T01:32:19.670Z,-0.68
2018-03-22T01:33:19.642Z,-0.70
2018-03-22T01:34:19.631Z,-0.73
2018-03-22T01:35:19.603Z,-0.70
2018-03-22T01:36:19.588Z,-0.77
2018-03-22T01:37:19.562Z,-0.63
2018-03-22T01:38:19.583Z,-0.78
2018-03-22T01:39:19.519Z,-0.90
2018-03-22T01:40:19.498Z,-0.70
2018-03-22T01:41:19.482Z,-0.68
2018-03-22T01:42:19.456Z,-0.77
2018-03-22T01:43:19.437Z,-0.63
2018-03-22T01:44:19.418Z,-0.62
2018-03-22T01:45:19.402Z,-0.76
2018-03-22T01:46:19.385Z,-0.76
2018-03-22T01:47:19.354Z,-0.65
2018-03-22T01:48:19.338Z,-0.73
2018-03-22T01:49:19.313Z,-0.78
2018-03-22T01:50:19.291Z,-0.93
2018-03-22T01:51:19.272Z,-0.93
2018-03-22T01:52:19.249Z,-0.97
2018-03-22T01:53:19.229Z,-1.02
2018-03-22T01:54:19.209Z,-0.95
2018-03-22T01:55:19.187Z,-0.95
2018-03-22T01:56:19.167Z,-1.07
2018-03-22T01:57:19.151Z,-1.10
2018-03-22T01:58:19.128Z,-1.13
2018-03-22T01:59:19.105Z,-1.17
2018-03-22T02:00:19.082Z,-1.08
2018-03-22T02:01:19.068Z,-1.14
2018-03-22T02:02:19.048Z,-1.14
2018-03-22T02:03:19.028Z,-1.17
2018-03-22T02:04:19.006Z,-1.11
2018-03-22T02:05:18.979Z,-0.99
2018-03-22T02:06:18.964Z,-0.99
2018-03-22T02:07:18.940Z,-0.97
2018-03-22T02:08:18.919Z,-0.80
2018-03-22T02:09:18.902Z,-0.78
2018-03-22T02:10:18.878Z,-0.80
2018-03-22T02:11:18.857Z,-0.80
2018-03-22T02:12:18.840Z,-0.77
2018-03-22T02:13:18.816Z,-0.74
2018-03-22T02:14:18.796Z,-0.81
2018-03-22T02:15:18.771Z,-0.76
2018-03-22T02:16:18.754Z,-0.89
2018-03-22T02:17:18.729Z,-0.89
2018-03-22T02:18:18.709Z,-0.93
2018-03-22T02:19:18.691Z,-1.05
2018-03-22T02:20:18.669Z,-1.03
2018-03-22T02:21:18.646Z,-1.10
2018-03-22T02:22:18.628Z,-1.08
2018-03-22T02:23:18.605Z,-0.95
2018-03-22T02:24:18.584Z,-0.86
2018-03-22T02:25:18.569Z,-0.92
2018-03-22T02:26:18.543Z,-0.89
2018-03-22T02:27:18.524Z,-0.89
2018-03-22T02:28:18.505Z,-0.97
2018-03-22T02:29:18.485Z,-0.95
2018-03-22T02:30:18.461Z,-1.00
2018-03-22T02:31:18.456Z,-1.08
2018-03-22T02:32:18.417Z,-0.89
2018-03-22T02:33:18.408Z,-0.97
2018-03-22T02:34:18.385Z,-1.08
2018-03-22T02:35:18.366Z,-1.14
2018-03-22T02:36:18.343Z,-1.20
2018-03-22T02:37:18.314Z,-1.13
2018-03-22T02:38:18.296Z,-1.20
2018-03-22T02:39:18.278Z,-1.28
2018-03-22T02:40:18.256Z,-1.33
2018-03-22T02:41:18.232Z,-1.38
2018-03-22T02:42:18.209Z,-1.38
2018-03-22T02:43:18.188Z,-1.31
2018-03-22T02:44:18.172Z,-1.36
2018-03-22T02:45:18.145Z,-1.36
2018-03-22T02:46:18.124Z,-1.39
2018-03-22T02:47:18.104Z,-1.36
2018-03-22T02:48:18.082Z,-1.39
2018-03-22T02:49:18.063Z,-1.31
2018-03-22T02:50:18.042Z,-1.38
2018-03-22T02:51:18.021Z,-1.31
2018-03-22T02:52:18.004Z,-1.33
2018-03-22T02:53:17.981Z,-1.41
2018-03-22T02:54:17.960Z,-1.44
2018-03-22T02:55:17.940Z,-1.33
2018-03-22T02:56:17.916Z,-1.25
2018-03-22T02:57:17.894Z,-1.10
2018-03-22T02:58:17.878Z,-1.00
2018-03-22T02:59:17.853Z,-0.92
2018-03-22T03:00:17.832Z,-0.97
2018-03-22T03:01:17.818Z,-0.76
2018-03-22T03:02:17.794Z,-0.85
2018-03-22T03:03:17.772Z,-0.93
2018-03-22T03:04:17.747Z,-0.92
2018-03-22T03:05:17.728Z,-0.95
2018-03-22T03:06:17.711Z,-1.02
2018-03-22T03:07:17.685Z,-1.05
2018-03-22T03:08:17.665Z,-1.17
2018-03-22T03:09:17.643Z,-1.14
2018-03-22T03:10:17.626Z,-1.10
2018-03-22T03:11:17.603Z,-1.17
2018-03-22T03:12:17.583Z,-1.13
2018-03-22T03:13:17.561Z,-1.15
2018-03-22T03:14:17.536Z,-1.33
2018-03-22T03:15:17.516Z,-1.35
2018-03-22T03:16:17.502Z,-1.29
2018-03-22T03:17:17.475Z,-1.36
2018-03-22T03:18:17.455Z,-1.38
2018-03-22T03:19:17.433Z,-1.41
2018-03-22T03:20:17.413Z,-1.41
2018-03-22T03:21:17.394Z,-1.41
2018-03-22T03:22:17.378Z,-1.49
2018-03-22T03:23:17.350Z,-1.39
2018-03-22T03:24:17.329Z,-1.26
2018-03-22T03:25:17.311Z,-1.25
2018-03-22T03:26:17.287Z,-1.17
2018-03-22T03:27:17.264Z,-1.26
2018-03-22T03:28:17.241Z,-1.21
2018-03-22T03:29:17.222Z,-1.33
2018-03-22T03:30:17.239Z,-1.35
2018-03-22T03:31:17.180Z,-1.36
2018-03-22T03:32:17.156Z,-1.35
2018-03-22T03:33:17.143Z,-1.33
2018-03-22T03:34:17.118Z,-1.32
2018-03-22T03:35:17.102Z,-1.36
2018-03-22T03:36:17.072Z,-1.39
2018-03-22T03:37:17.057Z,-1.33
2018-03-22T03:38:17.030Z,-1.23
2018-03-22T03:39:17.009Z,-1.26
2018-03-22T03:40:16.988Z,-1.31
2018-03-22T03:41:16.998Z,-1.47
2018-03-22T03:42:16.945Z,-1.43
2018-03-22T03:43:16.933Z,-1.54
2018-03-22T03:44:16.904Z,-1.49
2018-03-22T03:45:16.886Z,-1.57
2018-03-22T03:46:16.861Z,-1.49
2018-03-22T03:47:16.842Z,-1.57
2018-03-22T03:48:16.824Z,-1.67
2018-03-22T03:49:16.798Z,-1.59
2018-03-22T03:50:16.781Z,-1.64
2018-03-22T03:51:16.758Z,-1.68
2018-03-22T03:52:16.742Z,-1.74
2018-03-22T03:53:16.712Z,-1.68
2018-03-22T03:54:16.692Z,-1.64
2018-03-22T03:55:16.672Z,-1.59
2018-03-22T03:56:16.651Z,-1.53
2018-03-22T03:57:16.637Z,-1.65
2018-03-22T03:58:16.607Z,-1.67
2018-03-22T03:59:16.585Z,-1.80
2018-03-22T04:00:16.565Z,-1.78
2018-03-22T04:01:16.542Z,-1.71
2018-03-22T04:02:16.528Z,-1.67
2018-03-22T04:03:16.507Z,-1.67
2018-03-22T04:04:16.479Z,-1.41
2018-03-22T04:05:16.458Z,-1.51
2018-03-22T04:06:16.438Z,-1.62
2018-03-22T04:07:16.416Z,-1.53
2018-03-22T04:08:16.395Z,-1.59
2018-03-22T04:09:16.376Z,-1.68
2018-03-22T04:10:16.358Z,-1.62
2018-03-22T04:11:16.339Z,-1.70
2018-03-22T04:12:16.307Z,-1.72
2018-03-22T04:13:16.294Z,-1.75
2018-03-22T04:14:16.275Z,-1.77
2018-03-22T04:15:16.256Z,-1.86
2018-03-22T04:16:16.224Z,-1.78
2018-03-22T04:17:16.209Z,-1.62
2018-03-22T04:18:16.182Z,-1.77
2018-03-22T04:19:16.160Z,-1.82
2018-03-22T04:20:16.137Z,-1.74
2018-03-22T04:21:16.118Z,-1.85
2018-03-22T04:22:16.096Z,-1.88
2018-03-22T04:23:16.075Z,-1.95
2018-03-22T04:24:16.060Z,-1.96
2018-03-22T04:25:16.038Z,-1.85
2018-03-22T04:26:16.015Z,-1.86
2018-03-22T04:27:16.040Z,-1.77
2018-03-22T04:28:15.967Z,-1.78
2018-03-22T04:29:15.948Z,-1.86
2018-03-22T04:30:15.924Z,-1.75
2018-03-22T04:31:15.915Z,-1.74
2018-03-22T04:32:15.883Z,-1.74
2018-03-22T04:33:15.862Z,-1.75
2018-03-22T04:34:15.857Z,-1.88
2018-03-22T04:35:15.820Z,-1.86
2018-03-22T04:36:15.797Z,-1.86
2018-03-22T04:37:15.776Z,-1.95
2018-03-22T04:38:15.760Z,-1.90
2018-03-22T04:39:15.735Z,-1.92
2018-03-22T04:40:15.710Z,-1.98
2018-03-22T04:41:15.691Z,-1.93
2018-03-22T04:42:15.675Z,-1.95
2018-03-22T04:43:15.656Z,-2.10
2018-03-22T04:44:15.627Z,-2.01
2018-03-22T04:45:15.604Z,-1.98
2018-03-22T04:46:15.583Z,-1.98
2018-03-22T04:47:15.564Z,-1.95
2018-03-22T04:48:15.547Z,-1.90
2018-03-22T04:49:15.521Z,-1.95
2018-03-22T04:50:15.500Z,-1.88
2018-03-22T04:51:15.478Z,-1.74
2018-03-22T04:52:15.456Z,-1.78
2018-03-22T04:53:15.439Z,-1.89
2018-03-22T04:54:15.412Z,-1.93
2018-03-22T04:55:15.391Z,-1.98
2018-03-22T04:56:15.368Z,-2.00
2018-03-22T04:57:15.357Z,-1.93
2018-03-22T04:58:15.327Z,-2.01
2018-03-22T04:59:15.350Z,-1.88
2018-03-22T05:00:15.291Z,-1.90
2018-03-22T05:01:15.265Z,-1.85
2018-03-22T05:02:15.245Z,-1.92
2018-03-22T05:03:15.219Z,-1.96
2018-03-22T05:04:15.198Z,-1.95
2018-03-22T05:05:15.179Z,-2.04
2018-03-22T05:06:15.158Z,-2.03
2018-03-22T05:07:15.137Z,-2.04
2018-03-22T05:08:15.113Z,-2.10
2018-03-22T05:09:15.091Z,-2.06
2018-03-22T05:10:15.075Z,-1.83
2018-03-22T05:11:15.065Z,-1.98
2018-03-22T05:12:15.033Z,-1.96
2018-03-22T05:13:15.013Z,-1.95
2018-03-22T05:14:14.992Z,-2.03
2018-03-22T05:15:14.966Z,-1.92
2018-03-22T05:16:14.942Z,-1.93
2018-03-22T05:17:14.921Z,-2.00
2018-03-22T05:18:14.905Z,-1.96
2018-03-22T05:19:14.885Z,-1.96
2018-03-22T05:20:14.863Z,-1.93
2018-03-22T05:21:14.839Z,-2.00
2018-03-22T05:22:14.820Z,-1.96
2018-03-22T05:23:14.797Z,-1.98
2018-03-22T05:24:14.774Z,-2.16
2018-03-22T05:25:14.752Z,-2.04
2018-03-22T05:26:14.732Z,-2.06
2018-03-22T05:27:14.711Z,-1.96
2018-03-22T05:28:14.687Z,-2.01
2018-03-22T05:29:14.670Z,-2.01
2018-03-22T05:30:14.648Z,-1.95
2018-03-22T05:31:14.621Z,-2.03
2018-03-22T05:32:14.597Z,-1.96
2018-03-22T05:33:14.576Z,-1.96
2018-03-22T05:34:14.571Z,-1.93
2018-03-22T05:35:14.542Z,-1.95
2018-03-22T05:36:14.517Z,-2.00
2018-03-22T05:37:14.491Z,-2.11
2018-03-22T05:38:14.468Z,-1.98
2018-03-22T05:39:14.450Z,-1.95
2018-03-22T05:40:14.430Z,-2.01
2018-03-22T05:41:14.404Z,-1.95
2018-03-22T05:42:14.383Z,-1.98
2018-03-22T05:43:14.370Z,-1.98
2018-03-22T05:44:14.338Z,-1.93
2018-03-22T05:45:14.323Z,-2.03
2018-03-22T05:46:14.299Z,-1.86
2018-03-22T05:47:14.275Z,-1.93
2018-03-22T05:48:14.252Z,-1.90
2018-03-22T05:49:14.232Z,-1.78
2018-03-22T05:50:14.212Z,-1.77
2018-03-22T05:51:14.193Z,-1.74
2018-03-22T05:52:14.171Z,-1.78
2018-03-22T05:53:14.147Z,-1.80
2018-03-22T05:54:14.126Z,-1.77
2018-03-22T05:55:14.112Z,-1.85
2018-03-22T05:56:14.089Z,-1.90
2018-03-22T05:57:14.074Z,-1.78
2018-03-22T05:58:14.044Z,-1.74
2018-03-22T05:59:14.020Z,-1.80
2018-03-22T06:00:14.001Z,-1.77
2018-03-22T06:01:13.982Z,-1.61
2018-03-22T06:02:13.964Z,-1.67
2018-03-22T06:03:13.933Z,-1.56
2018-03-22T06:04:13.919Z,-1.46
2018-03-22T06:05:13.890Z,-1.50
2018-03-22T06:06:13.869Z,-1.39
2018-03-22T06:07:13.848Z,-1.35
2018-03-22T06:08:13.833Z,-1.25
2018-03-22T06:09:13.818Z,-1.21
2018-03-22T06:10:13.786Z,-1.17
2018-03-22T06:11:13.768Z,-1.20
2018-03-22T06:12:13.740Z,-1.25
2018-03-22T06:13:13.719Z,-1.25
2018-03-22T06:14:13.699Z,-1.23
2018-03-22T06:15:13.680Z,-1.26
2018-03-22T06:16:13.659Z,-1.26
2018-03-22T06:17:13.634Z,-1.17
2018-03-22T06:18:13.616Z,-1.08
2018-03-22T06:19:13.600Z,-1.02
2018-03-22T06:20:13.577Z,-1.10
2018-03-22T06:21:13.552Z,-1.07
2018-03-22T06:22:13.533Z,-1.07
2018-03-22T06:23:13.508Z,-1.10
2018-03-22T06:24:13.486Z,-1.14
2018-03-22T06:25:13.466Z,-1.13
2018-03-22T06:26:13.445Z,-1.10
2018-03-22T06:27:13.422Z,-1.11
2018-03-22T06:28:13.403Z,-1.13
2018-03-22T06:29:13.395Z,-1.14
2018-03-22T06:30:13.365Z,-1.15
2018-03-22T06:31:13.340Z,-1.15
2018-03-22T06:32:13.313Z,-1.14
2018-03-22T06:33:13.293Z,-1.20
2018-03-22T06:34:13.270Z,-1.17
2018-03-22T06:35:13.255Z,-1.18
2018-03-22T06:36:13.234Z,-1.08
2018-03-22T06:37:13.208Z,-1.11
2018-03-22T06:38:13.188Z,-1.03
2018-03-22T06:39:13.167Z,-0.96
2018-03-22T06:40:13.145Z,-0.81
2018-03-22T06:41:13.122Z,-0.90
2018-03-22T06:42:13.103Z,-0.85
2018-03-22T06:43:13.081Z,-0.76
2018-03-22T06:44:13.063Z,-0.63
2018-03-22T06:45:13.039Z,-0.56
2018-03-22T06:46:13.019Z,-0.50
2018-03-22T06:47:12.999Z,-0.53
2018-03-22T06:48:12.982Z,-0.44
2018-03-22T06:49:12.953Z,-0.41
2018-03-22T06:50:12.937Z,-0.49
2018-03-22T06:51:12.914Z,-0.42
2018-03-22T06:52:12.890Z,-0.23
2018-03-22T06:53:12.880Z,-0.14
2018-03-22T06:54:12.857Z,-0.17
2018-03-22T06:55:12.831Z,-0.09
2018-03-22T06:56:12.809Z,0.01
2018-03-22T06:57:12.789Z,0.02
2018-03-22T06:58:12.769Z,0.10
2018-03-22T06:59:12.756Z,0.15
2018-03-22T07:00:12.731Z,0.31
2018-03-22T07:01:12.708Z,0.40
2018-03-22T07:02:12.693Z,0.31
2018-03-22T07:03:12.664Z,0.34
2018-03-22T07:04:12.652Z,0.26
2018-03-22T07:05:12.624Z,0.34
2018-03-22T07:06:12.605Z,0.28
2018-03-22T07:07:12.587Z,0.19
2018-03-22T07:08:12.571Z,0.26
2018-03-22T07:09:12.544Z,0.40
2018-03-22T07:10:12.523Z,0.44
2018-03-22T07:11:12.504Z,0.72
2018-03-22T07:12:12.484Z,0.70
2018-03-22T07:13:12.473Z,0.80
2018-03-22T07:14:12.447Z,0.96
2018-03-22T07:15:12.424Z,1.13
2018-03-22T07:16:12.410Z,1.18
2018-03-22T07:17:12.391Z,1.31
2018-03-22T07:18:12.371Z,1.25
2018-03-22T07:19:12.351Z,1.20
2018-03-22T07:20:12.330Z,1.18
2018-03-22T07:21:12.306Z,1.29
2018-03-22T07:22:12.292Z,1.35
2018-03-22T07:23:12.266Z,1.32
2018-03-22T07:24:12.248Z,1.38
2018-03-22T07:25:12.228Z,1.42
2018-03-22T07:26:12.208Z,1.39
2018-03-22T07:27:12.189Z,1.36
2018-03-22T07:28:12.168Z,1.43
2018-03-22T07:29:12.157Z,1.36
2018-03-22T07:30:12.129Z,1.38
2018-03-22T07:31:12.115Z,1.42
2018-03-22T07:32:12.092Z,1.32
2018-03-22T07:33:12.074Z,1.29
2018-03-22T07:34:12.058Z,1.39
2018-03-22T07:35:12.033Z,1.39
2018-03-22T07:36:12.013Z,1.56
2018-03-22T07:37:11.998Z,1.75
2018-03-22T07:38:11.975Z,1.81
2018-03-22T07:39:11.956Z,1.82
2018-03-22T07:40:11.936Z,2.07
2018-03-22T07:41:11.919Z,2.11
2018-03-22T07:42:11.903Z,2.20
2018-03-22T07:43:11.883Z,2.14
2018-03-22T07:44:11.862Z,2.22
2018-03-22T07:45:11.845Z,2.09
2018-03-22T07:46:11.823Z,2.18
2018-03-22T07:47:11.811Z,2.26
2018-03-22T07:48:11.788Z,2.33
2018-03-22T07:49:11.768Z,2.44
2018-03-22T07:50:11.749Z,2.44
2018-03-22T07:51:11.730Z,2.58
2018-03-22T07:52:11.711Z,2.59
2018-03-22T07:53:11.692Z,2.68
2018-03-22T07:54:11.674Z,2.81
2018-03-22T07:55:11.662Z,2.92
2018-03-22T07:56:11.637Z,2.92
2018-03-22T07:57:11.626Z,3.04
2018-03-22T07:58:11.600Z,3.04
2018-03-22T07:59:11.590Z,3.10
2018-03-22T08:00:11.567Z,3.26
2018-03-22T08:01:11.551Z,3.37
2018-03-22T08:02:11.536Z,3.41
2018-03-22T08:03:11.510Z,3.45
2018-03-22T08:04:11.543Z,3.41
2018-03-22T08:05:11.479Z,3.41
2018-03-22T08:06:11.461Z,3.42
2018-03-22T08:07:11.442Z,3.52
2018-03-22T08:08:11.419Z,3.59
2018-03-22T08:09:11.403Z,3.60
2018-03-22T08:10:11.384Z,3.63
2018-03-22T08:11:11.367Z,3.74
2018-03-22T08:12:11.352Z,3.84
2018-03-22T08:13:11.332Z,3.80
2018-03-22T08:14:11.311Z,3.74
2018-03-22T08:15:11.303Z,3.75
2018-03-22T08:16:11.276Z,3.82
2018-03-22T08:17:11.263Z,3.86
2018-03-22T08:18:11.246Z,3.90
2018-03-22T08:19:11.226Z,3.95
2018-03-22T08:20:11.216Z,3.93
2018-03-22T08:21:11.197Z,3.95
2018-03-22T08:22:11.171Z,3.98
2018-03-22T08:23:11.157Z,3.92
2018-03-22T08:24:11.137Z,4.06
2018-03-22T08:25:11.121Z,4.06
2018-03-22T08:26:11.104Z,4.13
2018-03-22T08:27:11.086Z,4.25
2018-03-22T08:28:11.068Z,4.36
2018-03-22T08:29:11.052Z,4.51
2018-03-22T08:30:11.034Z,4.62
2018-03-22T08:31:11.026Z,4.68
2018-03-22T08:32:11.005Z,4.72
2018-03-22T08:33:10.984Z,4.88
2018-03-22T08:34:10.969Z,5.02
2018-03-22T08:35:10.954Z,5.11
2018-03-22T08:36:10.943Z,5.14
2018-03-22T08:37:10.917Z,5.26
2018-03-22T08:38:10.900Z,5.30
2018-03-22T08:39:10.883Z,5.08
2018-03-22T08:40:10.867Z,5.15
2018-03-22T08:41:10.869Z,5.23
2018-03-22T08:42:10.834Z,5.40
2018-03-22T08:43:10.827Z,5.60
2018-03-22T08:44:10.807Z,5.62
2018-03-22T08:45:10.792Z,5.63
2018-03-22T08:46:10.771Z,5.52
2018-03-22T08:47:10.759Z,5.47
2018-03-22T08:48:10.738Z,5.47
2018-03-22T08:49:10.722Z,5.42
2018-03-22T08:50:10.710Z,5.51
2018-03-22T08:51:10.691Z,5.49
2018-03-22T08:52:10.680Z,5.45
2018-03-22T08:53:10.657Z,5.48
2018-03-22T08:54:10.648Z,5.55
2018-03-22T08:55:10.627Z,5.48
2018-03-22T08:56:10.615Z,5.40
2018-03-22T08:57:10.592Z,5.37
2018-03-22T08:58:10.584Z,5.42
2018-03-22T08:59:10.560Z,5.37
2018-03-22T09:00:10.544Z,5.38
2018-03-22T09:01:10.538Z,5.40
2018-03-22T09:02:10.514Z,5.40
2018-03-22T09:03:10.498Z,5.42
2018-03-22T09:04:10.482Z,5.42
2018-03-22T09:05:10.466Z,5.40
2018-03-22T09:06:10.454Z,5.38
2018-03-22T09:07:10.443Z,5.38
2018-03-22T09:08:10.429Z,5.33
2018-03-22T09:09:10.405Z,5.38
2018-03-22T09:10:10.389Z,5.40
2018-03-22T09:11:10.372Z,5.44
2018-03-22T09:12:10.355Z,5.44
2018-03-22T09:13:10.340Z,5.60
2018-03-22T09:14:10.344Z,5.74
2018-03-22T09:15:10.314Z,5.95
2018-03-22T09:16:10.297Z,6.11
2018-03-22T09:17:10.277Z,6.21
2018-03-22T09:18:10.262Z,6.30
2018-03-22T09:19:10.247Z,6.33
2018-03-22T09:20:10.240Z,6.48
2018-03-22T09:21:10.216Z,6.50
2018-03-22T09:22:10.207Z,6.51
2018-03-22T09:23:10.192Z,6.58
2018-03-22T09:24:10.170Z,6.53
2018-03-22T09:25:10.156Z,6.61
2018-03-22T09:26:10.148Z,6.61
2018-03-22T09:27:10.127Z,6.57
2018-03-22T09:28:10.118Z,6.61
2018-03-22T09:29:10.106Z,6.65
2018-03-22T09:30:10.082Z,6.63
2018-03-22T09:31:10.072Z,6.76
2018-03-22T09:32:10.051Z,6.72
2018-03-22T09:33:10.038Z,6.72
2018-03-22T09:34:10.024Z,6.69
2018-03-22T09:35:10.007Z,6.87
2018-03-22T09:36:09.992Z,6.90
2018-03-22T09:37:09.979Z,6.93
2018-03-22T09:38:09.963Z,6.96
2018-03-22T09:39:09.949Z,6.86
2018-03-22T09:40:09.934Z,6.94
2018-03-22T09:41:09.925Z,7.00
2018-03-22T09:42:09.915Z,7.05
2018-03-22T09:43:09.898Z,7.04
2018-03-22T09:44:09.877Z,7.16
2018-03-22T09:45:09.864Z,7.27
2018-03-22T09:46:09.849Z,7.41
2018-03-22T09:47:09.833Z,7.57
2018-03-22T09:48:09.834Z,7.62
2018-03-22T09:49:09.806Z,7.69
2018-03-22T09:50:09.791Z,7.63
2018-03-22T09:51:09.779Z,7.67
2018-03-22T09:52:09.769Z,7.66
2018-03-22T09:53:09.748Z,7.70
2018-03-22T09:54:09.737Z,7.70
2018-03-22T09:55:09.721Z,7.63
2018-03-22T09:56:09.709Z,7.69
2018-03-22T09:57:09.699Z,7.66
2018-03-22T09:58:09.683Z,7.66
2018-03-22T09:59:09.665Z,7.54
2018-03-22T10:00:09.653Z,7.45
2018-03-22T10:01:09.637Z,7.42
2018-03-22T10:02:09.625Z,7.34
2018-03-22T10:03:09.611Z,7.27
2018-03-22T10:04:09.596Z,7.24
2018-03-22T10:05:09.582Z,7.34
2018-03-22T10:06:09.568Z,7.32
2018-03-22T10:07:09.555Z,7.37
2018-03-22T10:08:09.541Z,7.37
2018-03-22T10:09:09.526Z,7.47
2018-03-22T10:10:09.516Z,7.48
2018-03-22T10:11:09.499Z,7.37
2018-03-22T10:12:09.492Z,7.29
2018-03-22T10:13:09.471Z,7.34
2018-03-22T10:14:09.463Z,7.50
2018-03-22T10:15:09.443Z,7.27
2018-03-22T10:16:09.430Z,7.19
2018-03-22T10:17:09.420Z,7.12
2018-03-22T10:18:09.404Z,7.26
2018-03-22T10:19:09.387Z,7.42
2018-03-22T10:20:09.381Z,7.54
2018-03-22T10:21:09.368Z,7.71
2018-03-22T10:22:09.346Z,7.96
2018-03-22T10:23:09.338Z,7.99
2018-03-22T10:24:09.317Z,8.24
2018-03-22T10:25:09.304Z,8.28
2018-03-22T10:26:09.296Z,8.47
2018-03-22T10:27:09.278Z,8.57
2018-03-22T10:28:09.265Z,8.52
2018-03-22T10:29:09.250Z,8.55
2018-03-22T10:30:09.237Z,8.63
2018-03-22T10:31:09.230Z,8.67
2018-03-22T10:32:09.214Z,8.57
2018-03-22T10:33:09.199Z,8.60
2018-03-22T10:34:09.195Z,8.65
2018-03-22T10:35:09.177Z,8.63
2018-03-22T10:36:09.157Z,8.50
2018-03-22T10:37:09.145Z,8.57
2018-03-22T10:38:09.130Z,8.46
2018-03-22T10:39:09.119Z,8.37
2018-03-22T10:40:09.105Z,8.39
2018-03-22T10:41:09.091Z,8.36
2018-03-22T10:42:09.080Z,8.36
2018-03-22T10:43:09.068Z,8.34
2018-03-22T10:44:09.055Z,8.37
2018-03-22T10:45:09.042Z,8.45
2018-03-22T10:46:09.033Z,8.40
2018-03-22T10:47:09.021Z,8.45
2018-03-22T10:48:09.000Z,8.50
2018-03-22T10:49:08.993Z,8.54
2018-03-22T10:50:08.982Z,8.52
2018-03-22T10:51:08.969Z,8.50
2018-03-22T10:52:08.947Z,8.63
2018-03-22T10:53:08.937Z,8.64
2018-03-22T10:54:08.922Z,8.65
2018-03-22T10:55:08.913Z,8.73
2018-03-22T10:56:08.898Z,8.68
2018-03-22T10:57:08.889Z,8.73
2018-03-22T10:58:08.870Z,8.82
2018-03-22T10:59:08.858Z,8.83
2018-03-22T11:00:08.850Z,8.83
2018-03-22T11:01:08.844Z,8.91
2018-03-22T11:02:08.820Z,8.85
2018-03-22T11:03:08.807Z,8.86
2018-03-22T11:04:08.795Z,8.88
2018-03-22T11:05:08.784Z,8.88
2018-03-22T11:06:08.810Z,8.82
2018-03-22T11:07:08.761Z,8.91
2018-03-22T11:08:08.742Z,8.88
2018-03-22T11:09:08.731Z,8.83
2018-03-22T11:10:08.724Z,8.86
2018-03-22T11:11:08.705Z,8.93
2018-03-22T11:12:08.698Z,9.06
2018-03-22T11:13:08.680Z,9.20
2018-03-22T11:14:08.665Z,9.27
2018-03-22T11:15:08.653Z,9.31
2018-03-22T11:16:08.641Z,9.31
2018-03-22T11:17:08.634Z,9.27
2018-03-22T11:18:08.624Z,9.26
2018-03-22T11:19:08.609Z,9.38
2018-03-22T11:20:08.590Z,9.37
2018-03-22T11:21:08.578Z,9.24
2018-03-22T11:22:08.582Z,9.26
2018-03-22T11:23:08.554Z,9.26
2018-03-22T11:24:08.554Z,9.27
2018-03-22T11:25:08.536Z,9.45
2018-03-22T11:26:08.526Z,9.58
2018-03-22T11:27:08.513Z,9.68
2018-03-22T11:28:08.493Z,9.77
2018-03-22T11:29:08.481Z,9.71
2018-03-22T11:30:08.478Z,9.77
2018-03-22T11:31:08.457Z,9.91
2018-03-22T11:32:08.450Z,9.86
2018-03-22T11:33:08.435Z,9.81
2018-03-22T11:34:08.420Z,9.81
2018-03-22T11:35:08.416Z,9.81
2018-03-22T11:36:08.396Z,9.86
2018-03-22T11:37:08.384Z,9.89
2018-03-22T11:38:08.373Z,9.80
2018-03-22T11:39:08.367Z,9.99
2018-03-22T11:40:08.347Z,10.07
2018-03-22T11:41:08.339Z,10.13
2018-03-22T11:42:08.327Z,10.18
2018-03-22T11:43:08.313Z,10.28
2018-03-22T11:44:08.301Z,10.32
2018-03-22T11:45:08.293Z,10.36
2018-03-22T11:46:08.278Z,10.25
2018-03-22T11:47:08.267Z,10.34
2018-03-22T11:48:08.262Z,10.35
2018-03-22T11:49:08.254Z,10.32
2018-03-22T11:50:08.235Z,10.24
2018-03-22T11:51:08.222Z,10.29
2018-03-22T11:52:08.208Z,10.38
2018-03-22T11:53:08.197Z,10.34
2018-03-22T11:54:08.198Z,10.32
2018-03-22T11:55:08.175Z,10.35
2018-03-22T11:56:08.164Z,10.39
2018-03-22T11:57:08.153Z,10.38
2018-03-22T11:58:08.141Z,10.31
2018-03-22T11:59:08.165Z,10.29
2018-03-22T12:00:08.117Z,10.34
2018-03-22T12:01:08.107Z,10.39
2018-03-22T12:02:08.096Z,10.36
2018-03-22T12:03:08.084Z,10.38
2018-03-22T12:04:08.076Z,10.36
2018-03-22T12:05:08.062Z,10.36
2018-03-22T12:06:08.055Z,10.32
2018-03-22T12:07:08.049Z,10.25
2018-03-22T12:08:08.030Z,10.25
2018-03-22T12:09:08.016Z,10.28
2018-03-22T12:10:08.012Z,10.29
2018-03-22T12:11:08.050Z,10.26
2018-03-22T12:12:07.991Z,10.28
2018-03-22T12:13:07.974Z,10.01
2018-03-22T12:14:07.960Z,10.04
2018-03-22T12:15:07.951Z,9.75
2018-03-22T12:16:07.939Z,9.75
2018-03-22T12:17:07.981Z,9.71
2018-03-22T12:18:07.916Z,9.67
2018-03-22T12:19:07.907Z,9.70
2018-03-22T12:20:07.894Z,9.65
2018-03-22T12:21:07.881Z,9.56
2018-03-22T12:22:07.875Z,9.67
2018-03-22T12:23:07.861Z,9.65
2018-03-22T12:24:07.853Z,9.67
2018-03-22T12:25:07.841Z,9.65
2018-03-22T12:26:07.829Z,9.60
2018-03-22T12:27:07.812Z,9.59
2018-03-22T12:28:07.800Z,9.59
2018-03-22T12:29:07.788Z,9.59
2018-03-22T12:30:07.777Z,9.41
2018-03-22T12:31:07.772Z,9.59
2018-03-22T12:32:07.753Z,9.55
2018-03-22T12:33:07.748Z,9.55
2018-03-22T12:34:07.729Z,9.45
2018-03-22T12:35:07.724Z,9.37
2018-03-22T12:36:07.712Z,9.40
2018-03-22T12:37:07.701Z,9.40
2018-03-22T12:38:07.682Z,9.24
2018-03-22T12:39:07.670Z,9.37
2018-03-22T12:40:07.658Z,9.42
2018-03-22T12:41:07.653Z,9.41
2018-03-22T12:42:07.635Z,9.44
2018-03-22T12:43:07.623Z,9.41
2018-03-22T12:44:07.610Z,9.40
2018-03-22T12:45:07.604Z,9.40
2018-03-22T12:46:07.590Z,9.49
2018-03-22T12:47:07.580Z,9.58
2018-03-22T12:48:07.562Z,9.52
2018-03-22T12:49:07.550Z,9.67
2018-03-22T12:50:07.539Z,9.68
2018-03-22T12:51:07.527Z,9.67
2018-03-22T12:52:07.515Z,9.86
2018-03-22T12:53:07.509Z,9.81
2018-03-22T12:54:07.492Z,9.93
2018-03-22T12:55:07.487Z,9.93
2018-03-22T12:56:07.468Z,10.02
2018-03-22T12:57:07.463Z,10.07
2018-03-22T12:58:07.443Z,10.06
2018-03-22T12:59:07.432Z,10.14
2018-03-22T13:00:07.476Z,10.13
2018-03-22T13:01:07.408Z,10.20
2018-03-22T13:02:07.397Z,10.22
2018-03-22T13:03:07.387Z,10.25